Virtual United States Air Force

 METAR AND TAF INFORMATION
METAR FOR KEDW
ADDS - METARS form results

(0206 UTC 24 May 2018)
Data provider http://aviationweather.gov/adds/metars/
 
METAR text: KEDW 240158Z 24021KT 50SM FEW080 25/06 A2985 RMK AO2A PK WND 26028/42 SLP093 T02510063
Conditions at: KEDW (EDWARDS AFB , CA, US) observed 0158 UTC 24 May 2018
Temperature: 25.1°C (77°F)
Dewpoint: 6.3°C (43°F) [RH = 30%]
Pressure (altimeter): 29.85 inches Hg (1010.9 mb)
[Sea-level pressure: 1009.3 mb]
Winds: from the WSW (240 degrees) at 24 MPH (21 knots; 10.9 m/s)
Visibility: 50 miles (80 km)
Ceiling: at least 12,000 feet AGL
Clouds: few clouds at 8000 feet AGL
Weather: no significant weather observed at this time

Forecast for: KEDW (EDWARDS AFB , CA, US)
Text: TAF KEDW 231803Z 2318/2424 24009KT 9999 FEW040 QNH2987INS
Forecast period: 1800 to 2000 UTC 23 May 2018
Forecast type: FROM: standard forecast or significant change
Winds: from the WSW (240 degrees) at 10 MPH (9 knots; 4.7 m/s)
Visibility: 6 or more miles (10+ km)
Clouds: few clouds at 4000 feet AGL
Weather: no significant weather forecast for this period
Forecast for: KEDW (EDWARDS AFB , CA, US)
Text: TAF KEDW 231803Z 2318/2424 24009KT 9999 FEW040 QNH2987INS
Forecast period: 1800 to 2000 UTC 23 May 2018
Forecast type: FROM: standard forecast or significant change
Winds: from the WSW (240 degrees) at 10 MPH (9 knots; 4.7 m/s)
Visibility: 6 or more miles (10+ km)
Clouds: few clouds at 4000 feet AGL
Weather: no significant weather forecast for this period
Forecast for: KEDW (EDWARDS AFB , CA, US)
Text: TAF KEDW 231803Z 2318/2424 24009KT 9999 FEW040 QNH2987INS
Forecast period: 2000 to 2200 UTC 23 May 2018
Forecast type: BECOMING: Conditions expected to become as follows by 2100 UTC 23 May 2018
Winds: from the SW (230 degrees) at 14 MPH (12 knots; 6.2 m/s)
gusting to 21 MPH (18 knots; 9.4 m/s)
Visibility: 6 or more miles (10+ km)
Clouds: few clouds at 4000 feet AGL
Weather: no significant weather forecast for this period
Forecast for: KEDW (EDWARDS AFB , CA, US)
Text: TAF KEDW 231803Z 2318/2424 24009KT 9999 FEW040 QNH2987INS
Forecast period: 2000 to 2200 UTC 23 May 2018
Forecast type: BECOMING: Conditions expected to become as follows by 2100 UTC 23 May 2018
Winds: from the SW (230 degrees) at 14 MPH (12 knots; 6.2 m/s)
gusting to 21 MPH (18 knots; 9.4 m/s)
Visibility: 6 or more miles (10+ km)
Clouds: few clouds at 4000 feet AGL
Weather: no significant weather forecast for this period
Forecast for: KEDW (EDWARDS AFB , CA, US)
Text: TAF KEDW 231803Z 2318/2424 24009KT 9999 FEW040 QNH2987INS
Forecast period: 2200 UTC 23 May 2018 to 0200 UTC 24 May 2018
Forecast type: BECOMING: Conditions expected to become as follows by 2300 UTC 23 May 2018
Winds: from the WSW (240 degrees) at 17 MPH (15 knots; 7.8 m/s)
gusting to 29 MPH (25 knots; 13.0 m/s)
Visibility: 6 or more miles (10+ km)
Clouds: few clouds at 4000 feet AGL
Turbulence: Occasional moderate turbulence in clear air expected at surface extending to 9000 feet (2743m) AGL
Weather: no significant weather forecast for this period
Forecast for: KEDW (EDWARDS AFB , CA, US)
Text: TAF KEDW 231803Z 2318/2424 24009KT 9999 FEW040 QNH2987INS
Forecast period: 2200 UTC 23 May 2018 to 0200 UTC 24 May 2018
Forecast type: BECOMING: Conditions expected to become as follows by 2300 UTC 23 May 2018
Winds: from the WSW (240 degrees) at 17 MPH (15 knots; 7.8 m/s)
gusting to 29 MPH (25 knots; 13.0 m/s)
Visibility: 6 or more miles (10+ km)
Clouds: few clouds at 4000 feet AGL
Turbulence: Occasional moderate turbulence in clear air expected at surface extending to 9000 feet (2743m) AGL
Weather: no significant weather forecast for this period
Forecast for: KEDW (EDWARDS AFB , CA, US)
Text: TAF KEDW 231803Z 2318/2424 24009KT 9999 FEW040 QNH2987INS
Forecast period: 0200 to 0600 UTC 24 May 2018
Forecast type: BECOMING: Conditions expected to become as follows by 0300 UTC 24 May 2018
Winds: from the SW (220 degrees) at 12 MPH (10 knots; 5.2 m/s)
gusting to 17 MPH (15 knots; 7.8 m/s)
Visibility: 6 or more miles (10+ km)
Clouds: clear skies
Weather: no significant weather forecast for this period
Forecast for: KEDW (EDWARDS AFB , CA, US)
Text: TAF KEDW 231803Z 2318/2424 24009KT 9999 FEW040 QNH2987INS
Forecast period: 0200 to 0600 UTC 24 May 2018
Forecast type: BECOMING: Conditions expected to become as follows by 0300 UTC 24 May 2018
Winds: from the SW (220 degrees) at 12 MPH (10 knots; 5.2 m/s)
gusting to 17 MPH (15 knots; 7.8 m/s)
Visibility: 6 or more miles (10+ km)
Clouds: clear skies
Weather: no significant weather forecast for this period
Forecast for: KEDW (EDWARDS AFB , CA, US)
Text: TAF KEDW 231803Z 2318/2424 24009KT 9999 FEW040 QNH2987INS
Forecast period: 0600 to 1700 UTC 24 May 2018
Forecast type: BECOMING: Conditions expected to become as follows by 0700 UTC 24 May 2018
Winds: from the SW (220 degrees) at 10 MPH (9 knots; 4.7 m/s)
Visibility: 6 or more miles (10+ km)
Clouds: clear skies
Weather: no significant weather forecast for this period
Forecast for: KEDW (EDWARDS AFB , CA, US)
Text: TAF KEDW 231803Z 2318/2424 24009KT 9999 FEW040 QNH2987INS
Forecast period: 0600 to 1700 UTC 24 May 2018
Forecast type: BECOMING: Conditions expected to become as follows by 0700 UTC 24 May 2018
Winds: from the SW (220 degrees) at 10 MPH (9 knots; 4.7 m/s)
Visibility: 6 or more miles (10+ km)
Clouds: clear skies
Weather: no significant weather forecast for this period
Forecast for: KEDW (EDWARDS AFB , CA, US)
Text: TAF KEDW 231803Z 2318/2424 24009KT 9999 FEW040 QNH2987INS
Forecast period: 1700 to 2200 UTC 24 May 2018
Forecast type: BECOMING: Conditions expected to become as follows by 1800 UTC 24 May 2018
Winds: from the SW (220 degrees) at 14 MPH (12 knots; 6.2 m/s)
gusting to 21 MPH (18 knots; 9.4 m/s)
Visibility: 6 or more miles (10+ km)
Clouds: clear skies
Weather: no significant weather forecast for this period
Forecast for: KEDW (EDWARDS AFB , CA, US)
Text: TAF KEDW 231803Z 2318/2424 24009KT 9999 FEW040 QNH2987INS
Forecast period: 1700 to 2200 UTC 24 May 2018
Forecast type: BECOMING: Conditions expected to become as follows by 1800 UTC 24 May 2018
Winds: from the SW (220 degrees) at 14 MPH (12 knots; 6.2 m/s)
gusting to 21 MPH (18 knots; 9.4 m/s)
Visibility: 6 or more miles (10+ km)
Clouds: clear skies
Weather: no significant weather forecast for this period
Forecast for: KEDW (EDWARDS AFB , CA, US)
Text: TAF KEDW 231803Z 2318/2424 24009KT 9999 FEW040 QNH2987INS
Forecast period: 2200 UTC 24 May 2018 to 0000 UTC 25 May 2018
Forecast type: BECOMING: Conditions expected to become as follows by 2300 UTC 24 May 2018
Winds: from the SW (220 degrees) at 17 MPH (15 knots; 7.8 m/s)
gusting to 29 MPH (25 knots; 13.0 m/s)
Visibility: 6 or more miles (10+ km)
Clouds: clear skies
Turbulence: Occasional moderate turbulence in clear air expected at surface extending to 9000 feet (2743m) AGL
Weather: no significant weather forecast for this period
Forecast for: KEDW (EDWARDS AFB , CA, US)
Text: TAF KEDW 231803Z 2318/2424 24009KT 9999 FEW040 QNH2987INS
Forecast period: 2200 UTC 24 May 2018 to 0000 UTC 25 May 2018
Forecast type: BECOMING: Conditions expected to become as follows by 2300 UTC 24 May 2018
Winds: from the SW (220 degrees) at 17 MPH (15 knots; 7.8 m/s)
gusting to 29 MPH (25 knots; 13.0 m/s)
Visibility: 6 or more miles (10+ km)
Clouds: clear skies
Turbulence: Occasional moderate turbulence in clear air expected at surface extending to 9000 feet (2743m) AGL
Weather: no significant weather forecast for this period

 AIRPORT MAP

 RUNWAY INFORMATION
Runway 04L Runway length 12000 ft Runway width 200 ft
Runway elevation 2312 ft Runway displaced threshold 0 ft Runway heading 0
Runway 22R Runway length 12000 ft Runway width 200 ft
Runway elevation 2289 ft Runway displaced threshold 0 ft Runway heading 0
Runway 04R Runway length 15024 ft Runway width 300 ft
Runway elevation 2303 ft Runway displaced threshold 0 ft Runway heading 58
Runway 22L Runway length 15024 ft Runway width 300 ft
Runway elevation 2282 ft Runway displaced threshold 0 ft Runway heading 238
Runway 06 Runway length 8000 ft Runway width 50 ft
Runway elevation 2289 ft Runway displaced threshold 0 ft Runway heading 77
Runway 24 Runway length 8000 ft Runway width 50 ft
Runway elevation 2276 ft Runway displaced threshold 0 ft Runway heading 257

 AIRPORT FREQUENCIES
Type A/D Name SPORT APP/ Frequency 132.75 MHZ
Type ATIS Name ATIS Frequency 26.99 MHZ
Type GND Name GND Frequency 121.8 MHZ
Type MISC Name NASA FLT O Frequency 135.825 MHZ
Type PMSV Name PMSV METRO Frequency 34.24 MHZ
Type POST Name COMD POST Frequency 30.4 MHZ
Type PTD Name PTD Frequency 37.22 MHZ
Type TWR Name TWR Frequency 120.7 MHZ

 AIRPORT NEAR NAVIGATION AIDS


Neither the Department of the Air Force, nor any other component of the Department of Defense or Federal Government has approved, endorsed, or authorized this promotion, activity, or organization. Virtual United States Air Force organization is in no way affiliated with the Department of Defense, Department of the Air Force, or any other federal or government entity. Virtual United States Air Force is a group of flight simulation enthusiasts with the common interest of promoting enjoyment and cameraderie through the simulation of military operations and procedures utilizing several flight simulation platforms.

Copyright © vUSAF, LLC // 2018 All Rights Reserved